sensor_id;sensor_type;location;lat;lon;timestamp;P1;durP1;ratioP1;P2;durP2;ratioP2
73104;SDS011;61296;50.526;30.792;2023-09-18T00:13:31;10.38;;;7.68;;
73104;SDS011;61296;50.526;30.792;2023-09-18T00:28:50;10.68;;;7.82;;
73104;SDS011;61296;50.526;30.792;2023-09-18T00:44:09;11.77;;;7.78;;
73104;SDS011;61296;50.526;30.792;2023-09-18T00:59:28;12.88;;;8.35;;
73104;SDS011;61296;50.526;30.792;2023-09-18T01:14:57;12.63;;;9.25;;
73104;SDS011;61296;50.526;30.792;2023-09-18T01:30:19;17.42;;;10.43;;
73104;SDS011;61296;50.526;30.792;2023-09-18T01:45:38;14.23;;;9.43;;
73104;SDS011;61296;50.526;30.792;2023-09-18T02:01:01;14.95;;;8.52;;
73104;SDS011;61296;50.526;30.792;2023-09-18T02:16:20;14.20;;;9.60;;
73104;SDS011;61296;50.526;30.792;2023-09-18T02:31:42;14.00;;;9.88;;
73104;SDS011;61296;50.526;30.792;2023-09-18T02:47:01;13.73;;;9.85;;
73104;SDS011;61296;50.526;30.792;2023-09-18T03:02:21;15.45;;;10.63;;
73104;SDS011;61296;50.526;30.792;2023-09-18T03:17:40;17.35;;;10.43;;
73104;SDS011;61296;50.526;30.792;2023-09-18T03:33:01;14.70;;;9.85;;
73104;SDS011;61296;50.526;30.792;2023-09-18T03:48:20;14.10;;;9.75;;
73104;SDS011;61296;50.526;30.792;2023-09-18T04:03:41;18.05;;;10.73;;
73104;SDS011;61296;50.526;30.792;2023-09-18T04:19:00;13.15;;;8.80;;
73104;SDS011;61296;50.526;30.792;2023-09-18T04:34:20;15.40;;;9.63;;
73104;SDS011;61296;50.526;30.792;2023-09-18T04:49:40;16.55;;;10.00;;
73104;SDS011;61296;50.526;30.792;2023-09-18T05:05:00;18.58;;;10.50;;
73104;SDS011;61296;50.526;30.792;2023-09-18T05:20:20;12.52;;;8.75;;
73104;SDS011;61296;50.526;30.792;2023-09-18T05:35:43;14.02;;;8.90;;
73104;SDS011;61296;50.526;30.792;2023-09-18T05:51:03;11.48;;;8.43;;
73104;SDS011;61296;50.526;30.792;2023-09-18T06:06:22;16.58;;;8.88;;
73104;SDS011;61296;50.526;30.792;2023-09-18T06:21:41;17.02;;;9.70;;
73104;SDS011;61296;50.526;30.792;2023-09-18T06:37:00;11.25;;;8.60;;
73104;SDS011;61296;50.526;30.792;2023-09-18T06:52:20;13.25;;;8.30;;
73104;SDS011;61296;50.526;30.792;2023-09-18T07:07:38;12.45;;;8.30;;
73104;SDS011;61296;50.526;30.792;2023-09-18T07:22:57;26.42;;;8.80;;
73104;SDS011;61296;50.526;30.792;2023-09-18T07:38:17;19.80;;;7.68;;
73104;SDS011;61296;50.526;30.792;2023-09-18T07:53:38;12.48;;;6.70;;
73104;SDS011;61296;50.526;30.792;2023-09-18T08:09:00;14.15;;;6.75;;
73104;SDS011;61296;50.526;30.792;2023-09-18T08:24:20;20.95;;;11.23;;
73104;SDS011;61296;50.526;30.792;2023-09-18T08:39:40;9.52;;;6.60;;
73104;SDS011;61296;50.526;30.792;2023-09-18T08:55:00;11.32;;;6.30;;
73104;SDS011;61296;50.526;30.792;2023-09-18T09:10:21;16.25;;;9.77;;
73104;SDS011;61296;50.526;30.792;2023-09-18T09:25:40;11.30;;;5.32;;
73104;SDS011;61296;50.526;30.792;2023-09-18T09:41:00;11.60;;;5.20;;
73104;SDS011;61296;50.526;30.792;2023-09-18T09:56:20;15.77;;;5.22;;
73104;SDS011;61296;50.526;30.792;2023-09-18T10:11:42;9.15;;;4.82;;
73104;SDS011;61296;50.526;30.792;2023-09-18T10:27:04;9.13;;;4.60;;
73104;SDS011;61296;50.526;30.792;2023-09-18T10:42:24;7.22;;;4.70;;
73104;SDS011;61296;50.526;30.792;2023-09-18T10:57:52;8.88;;;4.90;;
73104;SDS011;61296;50.526;30.792;2023-09-18T11:13:12;14.20;;;6.47;;
73104;SDS011;61296;50.526;30.792;2023-09-18T11:28:47;10.93;;;5.70;;
73104;SDS011;61296;50.526;30.792;2023-09-18T11:59:37;9.20;;;5.15;;
73104;SDS011;61296;50.526;30.792;2023-09-18T12:14:57;9.07;;;5.50;;
73104;SDS011;61296;50.526;30.792;2023-09-18T12:30:16;17.88;;;5.55;;
73104;SDS011;61296;50.526;30.792;2023-09-18T12:45:40;8.98;;;4.88;;
73104;SDS011;61296;50.526;30.792;2023-09-18T13:01:05;10.98;;;5.18;;
73104;SDS011;61296;50.526;30.792;2023-09-18T13:16:26;9.02;;;4.40;;
73104;SDS011;61296;50.526;30.792;2023-09-18T13:31:45;13.95;;;4.70;;
73104;SDS011;61296;50.526;30.792;2023-09-18T13:47:05;7.97;;;4.50;;
73104;SDS011;61296;50.526;30.792;2023-09-18T14:02:24;9.32;;;5.07;;
73104;SDS011;61296;50.526;30.792;2023-09-18T14:17:46;7.43;;;4.72;;
73104;SDS011;61296;50.526;30.792;2023-09-18T14:33:05;10.85;;;4.97;;
73104;SDS011;61296;50.526;30.792;2023-09-18T14:48:26;7.22;;;4.85;;
73104;SDS011;61296;50.526;30.792;2023-09-18T15:03:48;22.00;;;5.85;;
73104;SDS011;61296;50.526;30.792;2023-09-18T15:19:10;10.55;;;4.97;;
73104;SDS011;61296;50.526;30.792;2023-09-18T15:34:29;12.02;;;5.13;;
73104;SDS011;61296;50.526;30.792;2023-09-18T15:49:48;8.23;;;5.05;;
73104;SDS011;61296;50.526;30.792;2023-09-18T16:05:07;9.70;;;6.10;;
73104;SDS011;61296;50.526;30.792;2023-09-18T16:20:26;18.83;;;8.90;;
73104;SDS011;61296;50.526;30.792;2023-09-18T16:35:45;12.90;;;7.80;;
73104;SDS011;61296;50.526;30.792;2023-09-18T16:51:05;11.32;;;7.40;;
73104;SDS011;61296;50.526;30.792;2023-09-18T17:06:27;13.35;;;6.63;;
73104;SDS011;61296;50.526;30.792;2023-09-18T17:21:46;9.30;;;6.45;;
73104;SDS011;61296;50.526;30.792;2023-09-18T17:37:06;8.10;;;6.63;;
73104;SDS011;61296;50.526;30.792;2023-09-18T17:52:25;16.77;;;7.95;;
73104;SDS011;61296;50.526;30.792;2023-09-18T18:07:44;15.05;;;7.20;;
73104;SDS011;61296;50.526;30.792;2023-09-18T18:23:04;10.70;;;7.30;;
73104;SDS011;61296;50.526;30.792;2023-09-18T18:38:23;11.20;;;7.38;;
73104;SDS011;61296;50.526;30.792;2023-09-18T18:53:43;14.90;;;8.73;;
73104;SDS011;61296;50.526;30.792;2023-09-18T19:09:03;15.80;;;9.85;;
73104;SDS011;61296;50.526;30.792;2023-09-18T19:24:24;14.82;;;9.93;;
73104;SDS011;61296;50.526;30.792;2023-09-18T19:39:43;17.95;;;10.95;;
73104;SDS011;61296;50.526;30.792;2023-09-18T19:55:02;13.77;;;9.90;;
73104;SDS011;61296;50.526;30.792;2023-09-18T20:10:22;15.68;;;9.57;;
73104;SDS011;61296;50.526;30.792;2023-09-18T20:25:42;16.38;;;10.10;;
73104;SDS011;61296;50.526;30.792;2023-09-18T20:41:01;16.95;;;10.07;;
73104;SDS011;61296;50.526;30.792;2023-09-18T20:56:21;13.05;;;9.38;;
73104;SDS011;61296;50.526;30.792;2023-09-18T21:11:41;13.98;;;10.07;;
73104;SDS011;61296;50.526;30.792;2023-09-18T21:27:00;18.00;;;11.13;;
73104;SDS011;61296;50.526;30.792;2023-09-18T21:42:19;19.42;;;11.05;;
73104;SDS011;61296;50.526;30.792;2023-09-18T21:57:38;18.63;;;10.60;;
73104;SDS011;61296;50.526;30.792;2023-09-18T22:12:57;15.85;;;10.38;;
73104;SDS011;61296;50.526;30.792;2023-09-18T22:28:17;18.50;;;10.50;;
73104;SDS011;61296;50.526;30.792;2023-09-18T22:59:34;18.23;;;11.27;;
73104;SDS011;61296;50.526;30.792;2023-09-18T23:14:53;20.23;;;11.35;;
73104;SDS011;61296;50.526;30.792;2023-09-18T23:30:16;17.52;;;10.95;;
73104;SDS011;61296;50.526;30.792;2023-09-18T23:45:41;15.40;;;10.27;;
